Time;durP1;ratioP1;P1;durP2;ratioP2;P2;SDS_P1;SDS_P2;PMS_P1;PMS_P2;Temp;Humidity;BMP_temperature;BMP_pressure;BME280_temperature;BME280_humidity;BME280_pressure;Samples;Min_cycle;Max_cycle;Signal;HPM_P1;HPM_P2
2023/08/16 00:01:50;;;;;;;4.83;4.43;;;;;;;21.48;78.47;98152.78;5092400;28;20545;-75
2023/08/16 00:04:17;;;;;;;4.73;4.13;;;;;;;21.69;77.90;98169.13;5091942;28;20477;-74
2023/08/16 00:06:43;;;;;;;4.20;3.90;;;;;;;21.63;78.24;98163.88;5091878;28;20865;-75
2023/08/16 00:09:10;;;;;;;5.00;4.60;;;;;;;21.60;78.09;98169.94;5092208;28;20496;-75
2023/08/16 00:11:37;;;;;;;4.70;4.30;;;;;;;21.59;78.36;98180.13;5092153;28;20498;-75
2023/08/16 00:14:04;;;;;;;5.20;4.80;;;;;;;21.54;78.63;98180.09;5091321;28;20461;-74
2023/08/16 00:16:34;;;;;;;4.53;4.23;;;;;;;21.56;78.16;98182.56;5092003;28;20441;-74
2023/08/16 00:19:00;;;;;;;4.80;4.50;;;;;;;21.48;79.00;98172.06;5091244;28;20941;-75
2023/08/16 00:21:27;;;;;;;4.73;4.23;;;;;;;21.26;79.73;98164.81;5091687;28;20767;-75
2023/08/16 00:23:54;;;;;;;5.50;5.10;;;;;;;21.32;79.69;98174.78;5091148;28;20445;-74
2023/08/16 00:26:21;;;;;;;5.87;5.27;;;;;;;21.42;79.24;98174.81;5091418;28;20968;-74
2023/08/16 00:28:48;;;;;;;6.80;5.10;;;;;;;21.53;78.74;98170.16;5091522;28;20441;-75
2023/08/16 00:31:15;;;;;;;5.77;5.27;;;;;;;21.36;79.50;98153.88;5091656;28;21180;-75
2023/08/16 00:33:43;;;;;;;5.43;4.93;;;;;;;21.20;80.38;98160.34;5091342;28;20438;-74
2023/08/16 00:36:10;;;;;;;5.77;5.27;;;;;;;21.21;80.70;98152.94;5091250;28;20527;-75
2023/08/16 00:38:42;;;;;;;4.77;4.37;;;;;;;21.24;80.56;98147.75;5091180;28;21024;-75
2023/08/16 00:41:09;;;;;;;4.40;4.10;;;;;;;21.26;80.18;98148.31;5091627;28;20457;-74
2023/08/16 00:43:35;;;;;;;4.90;4.60;;;;;;;21.23;80.74;98151.59;5091113;28;20490;-74
2023/08/16 00:46:03;;;;;;;4.90;4.50;;;;;;;21.28;80.54;98159.88;5091219;28;20572;-74
2023/08/16 00:48:32;;;;;;;5.47;4.97;;;;;;;21.19;80.64;98161.44;5091425;28;20446;-74
2023/08/16 00:51:00;;;;;;;5.23;4.67;;;;;;;21.14;81.23;98145.72;5091464;28;20449;-74
2023/08/16 00:53:28;;;;;;;4.70;4.30;;;;;;;21.26;80.69;98144.72;5090844;28;20528;-75
2023/08/16 00:55:55;;;;;;;4.90;4.50;;;;;;;21.25;80.38;98143.91;5091312;28;20469;-75
2023/08/16 00:58:22;;;;;;;4.60;4.20;;;;;;;21.33;80.06;98151.66;5090917;28;20995;-75
2023/08/16 01:00:50;;;;;;;4.20;3.90;;;;;;;21.32;80.49;98151.91;5090912;28;20536;-75
2023/08/16 01:03:16;;;;;;;4.23;3.93;;;;;;;21.26;80.29;98147.47;5091232;28;20510;-75
2023/08/16 01:05:43;;;;;;;4.90;4.60;;;;;;;21.28;80.58;98137.84;5090335;28;20540;-74
2023/08/16 01:08:11;;;;;;;4.80;4.30;;;;;;;21.26;80.10;98142.78;5091069;28;20524;-75
2023/08/16 01:10:43;;;;;;;5.00;4.60;;;;;;;21.29;80.30;98135.94;5091023;28;20465;-74
2023/08/16 01:13:14;;;;;;;4.77;4.43;;;;;;;21.10;81.06;98143.81;5090895;28;20556;-74
2023/08/16 01:15:43;;;;;;;5.10;4.70;;;;;;;21.13;80.84;98133.06;5090139;28;20977;-74
2023/08/16 01:18:10;;;;;;;4.80;4.50;;;;;;;20.90;82.21;98118.91;5090401;28;20526;-74
2023/08/16 01:20:37;;;;;;;4.10;3.80;;;;;;;20.90;81.97;98116.16;5090618;28;20544;-74
2023/08/16 01:23:06;;;;;;;4.67;4.37;;;;;;;20.84;82.56;98114.47;5090888;28;20446;-75
2023/08/16 01:25:44;;;;;;;5.47;5.00;;;;;;;20.83;82.68;98121.06;5090117;28;20553;-74
2023/08/16 01:28:13;;;;;;;5.30;4.80;;;;;;;20.86;82.38;98115.03;5090243;28;21048;-75
2023/08/16 01:30:40;;;;;;;5.17;4.77;;;;;;;20.92;82.05;98103.78;5090459;28;20559;-74
2023/08/16 01:33:07;;;;;;;5.83;5.40;;;;;;;20.83;82.59;98110.88;5090427;28;20771;-75
2023/08/16 01:35:35;;;;;;;5.90;4.90;;;;;;;20.72;82.66;98115.53;5090603;28;20457;-75
2023/08/16 01:38:02;;;;;;;5.30;4.87;;;;;;;20.76;83.41;98110.31;5090616;28;20450;-74
2023/08/16 01:40:31;;;;;;;5.70;5.30;;;;;;;20.70;82.44;98092.13;5090538;28;20522;-74
2023/08/16 01:42:58;;;;;;;5.40;5.10;;;;;;;20.69;82.87;98105.03;5090292;28;20441;-75
2023/08/16 01:45:27;;;;;;;5.00;4.70;;;;;;;20.44;84.30;98119.47;5089578;28;20457;-74
2023/08/16 01:47:54;;;;;;;6.10;5.60;;;;;;;20.56;84.04;98126.66;5089990;28;20463;-74
2023/08/16 01:50:21;;;;;;;6.67;6.10;;;;;;;20.51;83.58;98124.72;5090050;28;20968;-74
2023/08/16 01:52:48;;;;;;;7.13;6.50;;;;;;;20.33;84.50;98125.09;5090075;28;20527;-74
2023/08/16 01:55:15;;;;;;;8.10;7.40;;;;;;;20.30;84.65;98117.38;5089851;28;20588;-75
2023/08/16 01:57:42;;;;;;;7.60;7.10;;;;;;;20.21;84.94;98124.44;5089867;28;20459;-74
2023/08/16 02:00:10;;;;;;;8.43;7.73;;;;;;;20.20;85.08;98117.28;5090462;28;20454;-74
2023/08/16 02:02:38;;;;;;;7.90;7.30;;;;;;;20.21;85.28;98124.44;5089445;28;20955;-74
2023/08/16 02:05:06;;;;;;;8.80;8.00;;;;;;;20.20;85.53;98118.13;5088902;28;20516;-74
2023/08/16 02:07:33;;;;;;;9.17;8.47;;;;;;;19.87;86.79;98097.22;5089783;28;20497;-74
2023/08/16 02:10:00;;;;;;;7.97;7.33;;;;;;;19.77;87.94;98103.47;5090006;28;20536;-75
2023/08/16 02:12:26;;;;;;;8.10;7.50;;;;;;;19.72;88.04;98110.81;5089783;28;20436;-75
2023/08/16 02:14:53;;;;;;;7.57;7.00;;;;;;;19.76;88.11;98106.47;5089511;28;20476;-74
2023/08/16 02:17:20;;;;;;;7.53;7.03;;;;;;;19.73;88.40;98105.06;5090221;28;20520;-74
2023/08/16 02:19:48;;;;;;;7.43;7.03;;;;;;;19.83;87.88;98107.06;5090048;28;20454;-74
2023/08/16 02:22:15;;;;;;;7.13;6.60;;;;;;;19.79;88.25;98104.03;5089859;28;20457;-75
2023/08/16 02:24:41;;;;;;;9.27;8.57;;;;;;;20.06;86.96;98097.69;5089022;28;20521;-74
2023/08/16 02:27:08;;;;;;;8.30;7.70;;;;;;;20.18;86.27;98097.47;5089339;28;20492;-74
2023/08/16 02:29:35;;;;;;;7.63;7.13;;;;;;;20.19;86.28;98088.13;5089895;28;21018;-74
2023/08/16 02:32:02;;;;;;;8.80;7.83;;;;;;;20.25;86.10;98087.94;5089762;28;20441;-75
2023/08/16 02:34:29;;;;;;;7.90;7.40;;;;;;;20.09;86.51;98078.75;5091069;28;20480;-73
2023/08/16 02:36:57;;;;;;;9.30;8.63;;;;;;;20.06;86.20;98087.50;5089823;28;21043;-74
2023/08/16 02:39:24;;;;;;;8.63;8.03;;;;;;;19.95;86.56;98077.50;5089988;28;20523;-74
2023/08/16 02:41:53;;;;;;;8.13;7.53;;;;;;;19.94;86.95;98078.59;5089794;28;20516;-75
2023/08/16 02:44:20;;;;;;;8.83;8.23;;;;;;;19.91;87.35;98081.88;5089558;28;20574;-75
2023/08/16 02:46:47;;;;;;;9.10;8.40;;;;;;;19.83;87.83;98074.09;5089622;28;21033;-75
2023/08/16 02:49:13;;;;;;;9.20;8.50;;;;;;;19.78;88.46;98077.66;5089399;28;20459;-73
2023/08/16 02:51:40;;;;;;;9.90;9.10;;;;;;;19.83;88.48;98085.09;5089660;28;20895;-74
2023/08/16 02:54:08;;;;;;;8.47;7.87;;;;;;;19.98;87.47;98077.00;5089456;28;20458;-74
2023/08/16 02:56:35;;;;;;;9.70;8.90;;;;;;;20.05;87.36;98087.78;5089460;28;20468;-74
2023/08/16 02:59:02;;;;;;;9.37;8.53;;;;;;;20.00;87.28;98091.31;5089503;28;20527;-75
2023/08/16 03:01:29;;;;;;;9.30;8.60;;;;;;;19.91;87.97;98089.28;5093715;28;20538;-74
2023/08/16 03:03:55;;;;;;;10.77;9.93;;;;;;;19.96;87.64;98086.59;5093803;28;20461;-74
2023/08/16 03:06:22;;;;;;;10.43;9.47;;;;;;;19.96;87.78;98087.41;5093429;28;20611;-74
2023/08/16 03:08:49;;;;;;;9.63;8.90;;;;;;;19.93;87.39;98085.19;5093315;28;20438;-74
2023/08/16 03:11:17;;;;;;;10.13;9.30;;;;;;;20.01;87.15;98087.47;5093032;28;20981;-74
2023/08/16 03:13:44;;;;;;;8.80;8.10;;;;;;;19.73;88.34;98090.50;5092796;28;20470;-74
2023/08/16 03:16:10;;;;;;;8.13;7.53;;;;;;;19.66;88.52;98098.94;5093171;28;20468;-74
2023/08/16 03:18:37;;;;;;;8.17;7.60;;;;;;;19.64;88.39;98094.78;5093158;28;20539;-75
2023/08/16 03:21:04;;;;;;;8.13;7.43;;;;;;;19.71;87.94;98101.75;5092742;28;20517;-74
2023/08/16 03:23:31;;;;;;;8.30;7.60;;;;;;;19.76;87.79;98117.44;5092842;28;20505;-75
2023/08/16 03:25:58;;;;;;;8.10;7.50;;;;;;;19.75;88.17;98121.28;5092786;28;20459;-74
2023/08/16 03:28:26;;;;;;;9.67;8.73;;;;;;;19.76;88.22;98128.44;5093086;28;20534;-75
2023/08/16 03:30:54;;;;;;;9.07;8.37;;;;;;;19.76;88.18;98126.53;5092274;28;20786;-75
2023/08/16 03:33:21;;;;;;;9.23;8.63;;;;;;;19.64;88.86;98136.00;5092453;28;20448;-74
2023/08/16 03:35:47;;;;;;;8.60;7.90;;;;;;;19.56;89.27;98139.19;5092496;28;20445;-74
2023/08/16 03:38:14;;;;;;;8.73;8.10;;;;;;;19.66;88.77;98153.03;5092732;28;20487;-74
2023/08/16 03:40:41;;;;;;;10.03;9.33;;;;;;;19.71;88.60;98158.59;5092700;28;20539;-75
2023/08/16 03:43:08;;;;;;;11.30;10.50;;;;;;;19.68;88.72;98159.94;5092858;28;20526;-74
2023/08/16 03:45:38;;;;;;;11.97;10.90;;;;;;;19.69;88.18;98150.63;5092336;28;20502;-74
2023/08/16 03:48:05;;;;;;;11.10;10.30;;;;;;;19.63;88.71;98164.53;5092600;28;20478;-74
2023/08/16 03:50:31;;;;;;;9.80;9.17;;;;;;;19.62;88.45;98176.59;5092498;28;20527;-75
2023/08/16 03:52:58;;;;;;;10.53;9.50;;;;;;;19.60;88.56;98189.75;5092494;28;20446;-74
2023/08/16 03:55:25;;;;;;;10.10;9.40;;;;;;;19.52;88.83;98188.28;5092131;28;20519;-75
2023/08/16 03:57:52;;;;;;;10.10;9.20;;;;;;;19.48;89.34;98192.63;5092490;28;20866;-75
2023/08/16 04:00:19;;;;;;;10.60;9.80;;;;;;;19.51;88.74;98192.13;5092392;28;20519;-74
2023/08/16 04:02:47;;;;;;;12.00;11.00;;;;;;;19.41;89.39;98203.78;5092153;28;20447;-75
2023/08/16 04:05:14;;;;;;;11.20;9.97;;;;;;;19.30;89.86;98223.94;5092161;28;20454;-74
2023/08/16 04:07:41;;;;;;;11.20;10.30;;;;;;;19.23;89.87;98228.78;5091905;28;20481;-74
2023/08/16 04:10:08;;;;;;;9.47;8.70;;;;;;;19.24;89.46;98227.69;5091728;28;20939;-74
2023/08/16 04:12:35;;;;;;;9.80;8.90;;;;;;;19.09;89.82;98219.28;5092032;28;20442;-74
2023/08/16 04:15:03;;;;;;;8.77;7.97;;;;;;;19.18;89.45;98225.97;5091329;28;20528;-74
2023/08/16 04:17:30;;;;;;;9.07;8.27;;;;;;;19.17;89.41;98229.78;5091034;28;20473;-74
2023/08/16 04:19:58;;;;;;;8.53;7.77;;;;;;;19.12;89.33;98227.81;5091855;28;20538;-75
2023/08/16 04:22:25;;;;;;;7.40;6.90;;;;;;;19.27;88.93;98224.44;5091496;28;20453;-74
2023/08/16 04:24:52;;;;;;;8.00;7.40;;;;;;;19.29;88.78;98221.47;5090721;28;20976;-75
2023/08/16 04:27:19;;;;;;;7.43;6.77;;;;;;;19.38;88.12;98220.78;5091329;28;20494;-75
2023/08/16 04:29:45;;;;;;;6.93;6.33;;;;;;;19.54;87.57;98234.72;5091406;28;20454;-75
2023/08/16 04:32:12;;;;;;;7.40;6.80;;;;;;;19.57;87.38;98218.56;5090989;28;20484;-75
2023/08/16 04:34:39;;;;;;;8.03;7.43;;;;;;;19.54;86.93;98218.25;5091070;28;20508;-75
2023/08/16 04:37:07;;;;;;;7.73;7.13;;;;;;;19.48;86.87;98208.28;5091288;28;20811;-75
2023/08/16 04:39:34;;;;;;;7.87;7.37;;;;;;;19.50;87.32;98206.91;5091376;28;21081;-75
2023/08/16 04:42:01;;;;;;;8.43;7.60;;;;;;;19.62;86.50;98201.31;5091186;28;20497;-75
2023/08/16 04:44:27;;;;;;;7.10;6.50;;;;;;;19.67;85.88;98193.16;5090374;28;20990;-74
2023/08/16 04:46:54;;;;;;;5.10;4.80;;;;;;;19.65;86.17;98198.06;5090868;28;21235;-75
2023/08/16 04:49:22;;;;;;;5.23;4.83;;;;;;;19.69;85.73;98194.56;5090981;28;20451;-75
2023/08/16 04:51:48;;;;;;;5.00;4.70;;;;;;;19.69;85.69;98193.72;5090991;28;20438;-75
2023/08/16 04:54:16;;;;;;;5.60;5.10;;;;;;;19.85;85.12;98178.22;5090532;28;20516;-74
2023/08/16 04:56:43;;;;;;;6.10;5.60;;;;;;;19.85;84.90;98180.97;5090273;28;20451;-74
2023/08/16 04:59:10;;;;;;;5.93;5.43;;;;;;;19.81;84.92;98183.44;5090039;28;20442;-75
2023/08/16 05:01:37;;;;;;;6.07;5.67;;;;;;;19.80;85.50;98179.03;5090828;28;20797;-75
2023/08/16 05:04:24;;;;;;;6.17;5.67;;;;;;;19.58;86.49;98169.97;5090195;28;20444;-75
2023/08/16 05:07:11;;;;;;;6.73;6.23;;;;;;;19.66;86.38;98164.03;5090195;28;20481;-75
2023/08/16 05:09:39;;;;;;;6.90;6.40;;;;;;;19.60;86.57;98151.31;5090143;28;20496;-75
2023/08/16 05:12:06;;;;;;;6.60;6.10;;;;;;;19.46;87.58;98162.69;5090795;28;20480;-75
2023/08/16 05:14:33;;;;;;;8.33;7.73;;;;;;;19.46;87.53;98161.84;5090057;28;20489;-75
2023/08/16 05:17:00;;;;;;;9.10;8.40;;;;;;;19.34;88.32;98158.41;5090305;28;20446;-74
2023/08/16 05:19:26;;;;;;;9.47;8.77;;;;;;;19.33;88.56;98154.81;5090155;28;20470;-75
2023/08/16 05:22:09;;;;;;;9.27;8.67;;;;;;;19.26;89.17;98151.44;5089858;28;20491;-75
2023/08/16 05:24:36;;;;;;;9.57;8.87;;;;;;;19.27;89.34;98164.06;5090195;28;20487;-75
2023/08/16 05:27:05;;;;;;;8.70;8.00;;;;;;;19.39;89.15;98161.22;5090295;28;20558;-75
2023/08/16 05:29:31;;;;;;;11.33;10.40;;;;;;;19.41;89.34;98165.38;5090187;28;20509;-75
2023/08/16 05:31:58;;;;;;;9.47;8.83;;;;;;;19.66;88.42;98164.03;5089796;28;20535;-74
2023/08/16 05:34:25;;;;;;;10.10;9.40;;;;;;;19.60;88.85;98156.81;5089511;28;20458;-75
2023/08/16 05:36:53;;;;;;;11.80;10.70;;;;;;;19.49;89.51;98166.00;5090721;28;20457;-75
2023/08/16 05:39:20;;;;;;;11.20;10.30;;;;;;;19.48;89.55;98169.84;5096187;28;20438;-75
2023/08/16 05:41:47;;;;;;;11.20;10.17;;;;;;;19.64;89.16;98163.44;5089810;28;20506;-75
2023/08/16 05:44:15;;;;;;;10.87;9.97;;;;;;;19.73;89.10;98178.41;5089500;28;21002;-75
2023/08/16 05:46:42;;;;;;;10.43;9.63;;;;;;;19.97;88.17;98184.41;5089881;28;20453;-74
2023/08/16 05:49:09;;;;;;;12.17;11.17;;;;;;;20.11;87.66;98192.00;5089585;28;20446;-74
2023/08/16 05:51:35;;;;;;;12.20;11.30;;;;;;;20.06;87.41;98188.34;5090056;28;20506;-74
2023/08/16 05:54:03;;;;;;;11.60;10.60;;;;;;;20.10;87.68;98179.34;5089614;28;20496;-75
2023/08/16 05:56:30;;;;;;;12.17;11.27;;;;;;;20.09;87.55;98172.19;5089606;28;20859;-74
2023/08/16 05:58:56;;;;;;;12.03;11.13;;;;;;;20.29;87.10;98182.53;5089883;28;20452;-75
2023/08/16 06:01:25;;;;;;;13.07;11.87;;;;;;;20.35;86.79;98186.16;5089501;28;20924;-75
2023/08/16 06:03:51;;;;;;;13.00;11.90;;;;;;;20.51;86.13;98181.63;5089033;28;20468;-75
2023/08/16 06:06:18;;;;;;;12.73;11.80;;;;;;;20.26;87.40;98190.47;5089460;28;20525;-74
2023/08/16 06:08:45;;;;;;;12.40;11.30;;;;;;;20.48;86.58;98184.91;5089294;28;20581;-75
2023/08/16 06:11:12;;;;;;;10.87;9.97;;;;;;;20.77;86.02;98184.34;5089664;28;20969;-75
2023/08/16 06:13:39;;;;;;;10.40;9.60;;;;;;;20.98;85.34;98195.47;5088922;28;20487;-74
2023/08/16 06:16:06;;;;;;;9.73;8.93;;;;;;;21.00;84.51;98187.78;5088710;28;20480;-75
2023/08/16 06:18:34;;;;;;;10.90;10.10;;;;;;;20.95;84.33;98190.50;5089308;28;20512;-75
2023/08/16 06:21:01;;;;;;;9.73;9.03;;;;;;;20.77;84.92;98191.75;5089363;28;20460;-75
2023/08/16 06:23:27;;;;;;;10.47;9.70;;;;;;;20.64;85.12;98195.78;5088931;28;20514;-75
2023/08/16 06:25:54;;;;;;;10.13;9.40;;;;;;;20.67;85.40;98189.75;5089311;28;20450;-75
2023/08/16 06:28:21;;;;;;;9.90;8.90;;;;;;;20.75;85.00;98192.03;5089185;28;20489;-75
2023/08/16 06:30:48;;;;;;;8.20;7.50;;;;;;;20.97;84.85;98188.31;5089164;28;20465;-75
2023/08/16 06:33:15;;;;;;;9.23;8.43;;;;;;;21.11;84.19;98181.25;5089737;28;20473;-75
2023/08/16 06:35:43;;;;;;;9.73;9.03;;;;;;;21.01;84.65;98204.03;5093344;28;20514;-75
2023/08/16 06:38:10;;;;;;;8.87;8.20;;;;;;;21.12;83.71;98178.19;5093581;28;20883;-75
2023/08/16 06:40:37;;;;;;;8.60;7.90;;;;;;;21.27;83.19;98191.25;5093097;28;20457;-75
2023/08/16 06:43:04;;;;;;;8.80;8.10;;;;;;;21.28;83.53;98179.16;5093044;28;20465;-75
2023/08/16 06:45:31;;;;;;;10.50;9.70;;;;;;;21.37;82.87;98187.75;5093334;28;20541;-75
2023/08/16 06:47:59;;;;;;;9.17;8.47;;;;;;;21.36;82.32;98192.41;5093003;28;20992;-75
2023/08/16 06:50:27;;;;;;;8.80;8.20;;;;;;;21.44;82.43;98189.13;5093434;28;20536;-75
2023/08/16 06:52:55;;;;;;;9.97;9.13;;;;;;;21.55;81.80;98189.19;5093097;28;20483;-75
2023/08/16 06:55:22;;;;;;;9.27;8.53;;;;;;;21.60;82.14;98194.72;5092810;28;20449;-75
2023/08/16 06:57:49;;;;;;;8.20;7.50;;;;;;;21.67;81.88;98192.53;5092799;28;20453;-75
2023/08/16 07:00:17;;;;;;;8.20;7.50;;;;;;;21.84;80.85;98192.31;5093156;28;20449;-76
2023/08/16 07:02:44;;;;;;;8.03;7.33;;;;;;;22.20;79.64;98196.84;5092744;28;20832;-75
2023/08/16 07:05:12;;;;;;;8.20;7.40;;;;;;;22.47;78.83;98196.59;5092479;28;20551;-76
2023/08/16 07:07:39;;;;;;;8.77;8.07;;;;;;;22.62;77.53;98204.88;5092711;28;20984;-75
2023/08/16 07:10:09;;;;;;;8.73;8.10;;;;;;;22.72;77.14;98201.31;5092860;28;20445;-75
2023/08/16 07:12:36;;;;;;;7.50;6.90;;;;;;;22.49;77.77;98194.38;5093040;28;20464;-75
2023/08/16 07:15:03;;;;;;;8.23;7.63;;;;;;;22.86;76.76;98198.81;5091865;28;20445;-75
2023/08/16 07:17:29;;;;;;;7.90;7.30;;;;;;;23.04;75.45;98201.03;5092668;28;20455;-75
2023/08/16 07:19:56;;;;;;;7.20;6.70;;;;;;;23.25;75.04;98210.91;5092526;28;20952;-75
2023/08/16 07:22:25;;;;;;;7.00;6.50;;;;;;;23.33;75.01;98204.00;5092520;28;20540;-75
2023/08/16 07:24:52;;;;;;;7.33;6.73;;;;;;;23.45;73.67;98202.56;5091875;28;20497;-75
2023/08/16 07:27:20;;;;;;;7.83;7.23;;;;;;;23.77;72.86;98207.69;5092763;28;20446;-76
2023/08/16 07:29:47;;;;;;;6.80;6.30;;;;;;;23.93;72.32;98208.47;5092432;28;20450;-75
2023/08/16 07:32:13;;;;;;;6.83;6.33;;;;;;;24.05;71.99;98208.94;5092535;28;20559;-75
2023/08/16 07:34:42;;;;;;;6.43;5.93;;;;;;;24.16;71.28;98200.59;5091809;28;20555;-75
2023/08/16 07:37:13;;;;;;;7.00;6.40;;;;;;;24.29;70.14;98205.53;5092427;28;20525;-75
2023/08/16 07:39:40;;;;;;;6.43;5.83;;;;;;;24.19;71.20;98200.03;5091989;28;20433;-76
2023/08/16 07:42:07;;;;;;;6.97;6.13;;;;;;;23.95;71.67;98206.25;5092059;28;20449;-75
2023/08/16 07:44:35;;;;;;;6.73;6.03;;;;;;;24.22;70.82;98199.44;5091364;28;20464;-75
2023/08/16 07:47:03;;;;;;;5.87;5.40;;;;;;;25.19;67.48;98207.81;5091418;28;20537;-75
2023/08/16 07:49:30;;;;;;;6.30;5.60;;;;;;;25.29;66.55;98213.28;5091907;28;20516;-75
2023/08/16 07:51:57;;;;;;;6.77;6.17;;;;;;;25.78;64.80;98211.03;5091609;28;20444;-76
2023/08/16 07:54:24;;;;;;;6.47;5.93;;;;;;;25.91;63.65;98212.28;5091803;28;20538;-76
2023/08/16 07:56:51;;;;;;;5.70;5.30;;;;;;;26.47;62.48;98210.69;5091697;28;20458;-75
2023/08/16 07:59:19;;;;;;;5.27;4.87;;;;;;;27.53;59.29;98205.22;5092139;28;20544;-76
2023/08/16 08:01:49;;;;;;;5.60;5.20;;;;;;;27.76;56.80;98205.03;5091846;28;20456;-76
2023/08/16 08:04:16;;;;;;;5.20;4.43;;;;;;;28.35;54.72;98211.56;5091412;28;20481;-75
2023/08/16 08:06:43;;;;;;;5.10;4.60;;;;;;;28.40;54.65;98208.66;5091540;28;20577;-76
2023/08/16 08:09:11;;;;;;;4.60;4.30;;;;;;;29.26;52.31;98202.88;5091717;28;20520;-76
2023/08/16 08:11:38;;;;;;;5.03;4.63;;;;;;;29.30;51.03;98197.50;5091875;28;20477;-76
2023/08/16 08:14:06;;;;;;;5.57;5.03;;;;;;;29.05;52.67;98207.38;5091184;28;20901;-76
2023/08/16 08:16:33;;;;;;;5.30;4.80;;;;;;;28.86;52.80;98203.97;5091219;28;20445;-76
2023/08/16 08:19:02;;;;;;;6.00;4.93;;;;;;;29.35;51.51;98212.13;5091741;28;20512;-76
2023/08/16 08:21:30;;;;;;;4.77;4.37;;;;;;;29.90;50.67;98211.69;5091528;28;20445;-75
2023/08/16 08:23:57;;;;;;;5.27;4.83;;;;;;;30.34;48.69;98205.09;5091076;28;20461;-76
2023/08/16 08:26:25;;;;;;;5.83;4.90;;;;;;;30.38;47.65;98200.50;5091659;28;20461;-76
2023/08/16 08:28:53;;;;;;;5.90;5.50;;;;;;;30.01;49.07;98201.91;5091399;28;20485;-76
2023/08/16 08:31:21;;;;;;;7.20;5.20;;;;;;;30.32;48.54;98206.56;5091316;28;20460;-76
2023/08/16 08:33:48;;;;;;;5.90;5.30;;;;;;;30.63;47.91;98212.84;5091175;28;20477;-76
2023/08/16 08:36:17;;;;;;;5.17;4.77;;;;;;;30.90;46.80;98202.47;5091128;28;20985;-75
2023/08/16 08:38:45;;;;;;;5.17;4.77;;;;;;;30.82;46.85;98194.94;5090916;28;20942;-76
2023/08/16 08:41:12;;;;;;;5.50;5.00;;;;;;;30.54;47.53;98186.84;5090944;28;20465;-76
2023/08/16 08:43:41;;;;;;;5.03;4.73;;;;;;;31.09;47.09;98197.34;5090745;28;20500;-75
2023/08/16 08:46:08;;;;;;;5.30;4.90;;;;;;;31.87;45.34;98199.88;5090928;28;20544;-75
2023/08/16 08:48:36;;;;;;;4.43;4.03;;;;;;;32.51;43.56;98202.44;5091245;28;20481;-76
2023/08/16 08:51:05;;;;;;;5.10;4.80;;;;;;;32.37;42.98;98199.94;5090696;28;21040;-76
2023/08/16 08:53:33;;;;;;;5.43;5.00;;;;;;;32.42;43.72;98205.34;5090703;28;20523;-76
2023/08/16 08:56:03;;;;;;;4.73;4.33;;;;;;;33.03;41.93;98202.84;5090697;28;20465;-76
2023/08/16 08:58:31;;;;;;;5.13;4.73;;;;;;;33.44;41.30;98209.53;5089497;28;20514;-76
2023/08/16 09:00:58;;;;;;;5.50;5.10;;;;;;;33.11;41.48;98204.75;5090399;28;21018;-76
2023/08/16 09:03:25;;;;;;;5.13;4.70;;;;;;;32.68;42.71;98203.13;5090463;28;20472;-76
2023/08/16 09:05:54;;;;;;;4.70;4.40;;;;;;;32.87;42.96;98215.84;5090855;28;20456;-76
2023/08/16 09:08:21;;;;;;;5.27;4.87;;;;;;;33.48;41.20;98216.06;5090950;28;20518;-76
2023/08/16 09:10:50;;;;;;;5.77;4.90;;;;;;;32.99;41.70;98213.09;5090884;28;20441;-76
2023/08/16 09:13:17;;;;;;;5.63;5.07;;;;;;;31.36;45.99;98202.56;5089647;28;20968;-76
2023/08/16 09:15:44;;;;;;;5.83;5.43;;;;;;;31.26;46.44;98186.13;5090087;28;20497;-76
2023/08/16 09:18:12;;;;;;;5.10;4.67;;;;;;;31.05;47.49;98197.19;5090666;28;20458;-75
2023/08/16 09:20:42;;;;;;;5.50;5.10;;;;;;;31.05;47.84;98190.78;5090325;28;20929;-76
2023/08/16 09:23:12;;;;;;;4.87;4.47;;;;;;;30.96;48.00;98189.97;5090024;28;20477;-76
2023/08/16 09:25:39;;;;;;;5.17;4.77;;;;;;;31.13;47.58;98186.34;5089436;28;20441;-76
2023/08/16 09:28:10;;;;;;;4.90;4.37;;;;;;;30.73;48.15;98176.19;5090135;28;20941;-76
2023/08/16 09:30:38;;;;;;;5.40;4.90;;;;;;;31.27;47.61;98173.78;5089642;28;21397;-76
2023/08/16 09:33:05;;;;;;;5.30;4.90;;;;;;;31.48;46.92;98171.09;5090118;28;20543;-76
2023/08/16 09:35:34;;;;;;;4.30;3.90;;;;;;;32.63;44.36;98172.50;5089845;28;20441;-76
2023/08/16 09:38:02;;;;;;;5.10;4.77;;;;;;;33.09;42.62;98167.78;5089991;28;20495;-73
2023/08/16 09:40:29;;;;;;;6.17;5.57;;;;;;;32.36;43.38;98168.28;5090058;28;21025;-73
2023/08/16 09:42:59;;;;;;;5.70;5.30;;;;;;;31.76;45.98;98165.88;5090016;28;20523;-74
2023/08/16 09:45:31;;;;;;;6.33;5.10;;;;;;;31.08;47.26;98167.72;5089837;28;20454;-73
2023/08/16 09:48:00;;;;;;;6.50;5.90;;;;;;;30.53;48.34;98162.88;5090012;28;20445;-74
2023/08/16 09:50:28;;;;;;;5.43;5.00;;;;;;;30.00;50.11;98163.16;5089797;28;20457;-74
2023/08/16 09:52:56;;;;;;;6.20;5.70;;;;;;;29.49;50.16;98166.63;5089815;28;20556;-76
2023/08/16 09:55:25;;;;;;;6.10;5.50;;;;;;;29.12;52.25;98160.34;5089934;28;20449;-76
2023/08/16 09:57:52;;;;;;;5.90;5.50;;;;;;;29.80;50.31;98164.56;5089783;28;20446;-76
2023/08/16 10:00:19;;;;;;;5.00;4.60;;;;;;;30.03;51.35;98160.53;5090022;28;20453;-76
2023/08/16 10:02:49;;;;;;;5.93;5.43;;;;;;;29.93;51.56;98160.81;5089381;28;21067;-76
2023/08/16 10:05:17;;;;;;;5.80;4.97;;;;;;;30.27;50.42;98168.44;5088975;28;20498;-77
2023/08/16 10:07:44;;;;;;;5.77;5.30;;;;;;;30.63;49.39;98156.94;5089690;28;20497;-76
2023/08/16 10:10:11;;;;;;;5.67;5.17;;;;;;;31.00;48.45;98152.63;5089438;28;20523;-76
2023/08/16 10:12:38;;;;;;;5.70;5.17;;;;;;;31.04;48.32;98149.97;5089281;28;20469;-76
2023/08/16 10:15:05;;;;;;;5.77;5.47;;;;;;;31.14;47.66;98154.44;5088668;28;20541;-76
2023/08/16 10:17:33;;;;;;;5.70;5.30;;;;;;;30.62;48.74;98160.06;5089421;28;21033;-76
2023/08/16 10:20:05;;;;;;;5.60;4.87;;;;;;;31.53;45.68;98156.06;5088827;28;20885;-76
2023/08/16 10:22:36;;;;;;;5.20;4.80;;;;;;;32.12;45.29;98153.28;5089616;28;20464;-76
2023/08/16 10:25:10;;;;;;;5.37;4.90;;;;;;;32.33;42.96;98151.34;5089331;28;20443;-76
2023/08/16 10:27:38;;;;;;;5.33;4.87;;;;;;;32.66;42.96;98146.59;5089564;28;20501;-76
2023/08/16 10:30:07;;;;;;;5.83;5.43;;;;;;;32.05;43.75;98151.03;5089216;28;20495;-76
2023/08/16 10:32:35;;;;;;;6.40;5.80;;;;;;;31.67;44.28;98153.88;5089201;28;20542;-76
2023/08/16 10:35:05;;;;;;;5.50;5.10;;;;;;;31.30;45.23;98155.50;5089168;28;20448;-76
2023/08/16 10:37:31;;;;;;;5.97;5.57;;;;;;;30.54;47.72;98147.72;5089638;28;20445;-76
2023/08/16 10:39:58;;;;;;;5.67;5.27;;;;;;;31.73;45.82;98149.75;5088840;28;21414;-76
2023/08/16 10:42:26;;;;;;;6.20;5.60;;;;;;;32.21;44.10;98142.81;5089297;28;20549;-76
2023/08/16 10:44:53;;;;;;;7.57;5.00;;;;;;;31.83;45.00;98135.38;5088839;28;20457;-76
2023/08/16 10:47:28;;;;;;;5.63;5.23;;;;;;;31.97;45.51;98138.72;5089177;28;20748;-76
2023/08/16 10:49:55;;;;;;;5.10;4.80;;;;;;;32.92;42.95;98129.53;5089499;28;20577;-76
2023/08/16 10:52:28;;;;;;;6.13;5.73;;;;;;;34.15;40.17;98136.03;5089211;28;20458;-76
2023/08/16 10:54:55;;;;;;;5.43;4.93;;;;;;;33.85;39.72;98132.69;5088953;28;20438;-74
2023/08/16 10:57:25;;;;;;;5.23;4.77;;;;;;;34.92;38.32;98131.09;5088974;28;20437;-74
2023/08/16 11:00:02;;;;;;;5.20;4.80;;;;;;;34.50;38.84;98128.69;5089322;28;20548;-74
2023/08/16 11:02:31;;;;;;;5.40;5.00;;;;;;;34.89;38.19;98118.56;5089285;28;20461;-74
2023/08/16 11:04:59;;;;;;;5.33;4.90;;;;;;;33.97;40.49;98130.69;5088991;28;20469;-74
2023/08/16 11:07:28;;;;;;;5.00;4.70;;;;;;;34.33;39.40;98120.56;5088895;28;20936;-74
2023/08/16 11:09:59;;;;;;;5.47;4.93;;;;;;;34.72;38.92;98115.25;5088832;28;21067;-74
2023/08/16 11:12:29;;;;;;;5.10;4.70;;;;;;;34.33;39.09;98115.75;5089068;28;20476;-74
2023/08/16 11:14:56;;;;;;;5.30;5.00;;;;;;;34.95;38.76;98110.69;5088288;28;20442;-74
2023/08/16 11:17:26;;;;;;;5.33;4.83;;;;;;;34.24;39.45;98111.41;5088756;28;20453;-74
2023/08/16 11:19:54;;;;;;;5.43;5.03;;;;;;;33.24;41.42;98113.78;5089284;28;20454;-74
2023/08/16 11:22:21;;;;;;;5.80;5.30;;;;;;;33.79;40.88;98115.25;5092475;28;20453;-74
2023/08/16 11:24:50;;;;;;;5.90;5.50;;;;;;;33.36;41.40;98111.03;5092345;28;20441;-74
2023/08/16 11:27:21;;;;;;;5.20;4.70;;;;;;;33.71;40.97;98111.38;5092607;28;20473;-74
2023/08/16 11:29:49;;;;;;;5.30;4.90;;;;;;;34.47;39.62;98112.53;5092486;28;20572;-74
2023/08/16 11:32:16;;;;;;;5.00;4.60;;;;;;;33.98;41.07;98106.22;5092457;28;20485;-74
2023/08/16 11:34:42;;;;;;;4.80;4.40;;;;;;;34.68;38.93;98110.34;5092077;28;20449;-76